Boston, Massachusetts
Traffic Map
Current Weather Conditions
Boston, Massachusetts
Overcast Heavy Rain
Overcast
36°
Feels Like: 32°
Wind Chill: 32° Ceiling: 600
Heat Index: 36° Visibility: 1mi
Dew Point: 36° Wind: 5mph
Humidity: 100% Direction: 360° (N)
Pressure: 29.7in Gusts: 0mph
Raw Report DataKBOS 231707Z 36004KT 1SM R04R/3000VP6000FT +RA BR BKN006 OVC010 02/02 A2970 RMK AO2 SFC VIS 1 1/4 PRESFR P0011 T00220022
Traffic Incident Summary
Active as of:
Severity:
Category:
InformationThere was an issue retrieving the traffic information for this location. Please try a different location or try again shortly.
Advertisements